Domov               UVHVVR             MKGP            O straneh              
ZDRAVSTVENO VARSTVO RASTLIN
  MREŽA AGROMET. POSTAJ
 ► PROGNOSTIČNA OBVESTILA
AGROMETEOROLOŠKI PODATKI -
ARSO
OBVLADOVANJE TVEGANJ ZARADI
NEUGODNIH VREMENSKIH RAZMER
  ► NARAVNE NESREČE
  ► SUŠA/MOČA
  ► NAMAKANJE
  ► ŽLED (gozdarstvo)
KARTOGRAFSKI PRIKAZI
SPLETNE POVEZAVE
PROJEKTI IN PUBLIKACIJE

AGROMETEOROLOŠKA MREŽA: VREMENSKE POSTAJE IN FENOLOŠKA OPAZOVANJA

Pregled podatkov za lokacijo Potoče, meteorološka postaja 861648

Pregled senzorjev na lokaciji

ID Ime Zadnja
vrednost
Datum
zadnje
spremembe
Tip
senzorja
4072 Omočenost lista (U) 1 U 19.7.2018 22:00 A730WET
4073 Padavine (mm) 0 mm 19.7.2018 22:00 Rain-O-Matic
4071 Relativna vlaga 2 m (% RH) 87,3 % RH 19.7.2018 22:00 50YA
4070 Temperatura 2 m (°C) 20,1 °C 19.7.2018 22:00 50YA

Pregled podatkov zadnjih 24 ur

Zap.
št.
Datum in čas Potoče
Omočenost
lista
Padavine Relativna
vlaga
2
m
Temperatura
2
m
1 19.7.2018 23:30
2 19.7.2018 23:00
3 19.7.2018 22:30
4 19.7.2018 22:00
5 19.7.2018 21:30
6 19.7.2018 21:00 1 0 87,3 20,1
7 19.7.2018 20:30 0 0 84,3 21,5
8 19.7.2018 20:00 0 0 78,6 23,3
9 19.7.2018 19:30 0 0 67,8 25,6
10 19.7.2018 19:00 0 0 56,3 28,3
11 19.7.2018 18:30 0 0 50 31
12 19.7.2018 18:00 0 0 47,6 31,3
13 19.7.2018 17:30 0 0 46,5 31,9
14 19.7.2018 17:00 0 0 46,3 31,6
15 19.7.2018 16:30 0 0 45,5 31,6
16 19.7.2018 16:00 0 0 47,7 31,6
17 19.7.2018 15:30 0 0 48 31,5
18 19.7.2018 15:00 0 0 49,5 31,6
19 19.7.2018 14:30 0 0 49,3 31,7
20 19.7.2018 14:00 0 0 50 31,7
21 19.7.2018 13:30 0 0 51,9 31,6
22 19.7.2018 13:00 0 0 50,7 31,6
23 19.7.2018 12:30 0 0 48,7 32,2
24 19.7.2018 12:00 0 0 48,7 32,2
25 19.7.2018 11:30 0 0 50,8 32,5
26 19.7.2018 11:00 0 0 51,9 32,6
27 19.7.2018 10:30 0 0 53,9 32
28 19.7.2018 10:00 0 0 58,3 31,1
29 19.7.2018 09:30 0 0 56,7 30,4
30 19.7.2018 09:00 0 0 60,2 28,8
31 19.7.2018 08:30 0 0 63,6 26,8
32 19.7.2018 08:00 0 0 68,4 24,9
33 19.7.2018 07:30 2 0 76,6 22,6
34 19.7.2018 07:00 10 0 94,5 19,5
35 19.7.2018 06:30 10 0 98,3 17
36 19.7.2018 06:00 10 0 98 15,1
37 19.7.2018 05:30 10 0 97,4 13,8
38 19.7.2018 05:00 10 0 97,1 13,8
39 19.7.2018 04:30 10 0 96,8 13,9
40 19.7.2018 04:00 10 0 96,5 14
41 19.7.2018 03:30 10 0 96,2 14,1
42 19.7.2018 03:00 9 0 95,8 14,2
43 19.7.2018 02:30 9 0 95,5 14,4
44 19.7.2018 02:00 9 0 95,2 14,5
45 19.7.2018 01:30 8 0 94,8 14,9
46 19.7.2018 01:00 8 0 94,5 15,2
47 19.7.2018 00:30 7 0 94,2 15,5
48 19.7.2018 00:00 7 0 93,9 16
© 2011 Ministrstvo za kmetijstvo, gozdarstvo in prehrano. Vse pravice pridržane.